createdAt,value
2019-06-07T00:01:51.119Z,37.70
2019-06-07T00:04:21.407Z,37.70
2019-06-07T00:06:50.119Z,37.70
2019-06-07T00:09:22.667Z,37.80
2019-06-07T00:11:49.256Z,37.80
2019-06-07T00:14:18.854Z,37.80
2019-06-07T00:16:48.242Z,37.80
2019-06-07T00:19:18.630Z,37.90
2019-06-07T00:22:15.524Z,37.90
2019-06-07T00:24:19.353Z,37.90
2019-06-07T00:26:58.302Z,38.00
2019-06-07T00:29:21.152Z,37.90
2019-06-07T00:31:48.955Z,38.10
2019-06-07T00:34:20.022Z,38.00
2019-06-07T00:36:48.081Z,38.00
2019-06-07T00:39:21.889Z,38.10
2019-06-07T00:41:47.178Z,38.10
2019-06-07T00:44:19.856Z,38.10
2019-06-07T00:46:46.309Z,38.10
2019-06-07T00:49:32.255Z,38.10
2019-06-07T00:51:50.303Z,38.20
2019-06-07T00:54:18.594Z,38.30
2019-06-07T00:56:46.658Z,38.20
2019-06-07T00:59:18.564Z,38.20
2019-06-07T01:01:45.782Z,38.30
2019-06-07T01:04:17.793Z,38.30
2019-06-07T01:06:44.863Z,38.30
2019-06-07T01:09:15.212Z,38.30
2019-06-07T01:11:44.106Z,38.40
2019-06-07T01:14:14.547Z,38.60
2019-06-07T01:16:56.604Z,38.40
2019-06-07T01:19:13.886Z,38.50
2019-06-07T01:21:42.739Z,38.50
2019-06-07T01:24:12.654Z,38.50
2019-06-07T01:26:41.649Z,38.50
2019-06-07T01:29:10.432Z,38.70
2019-06-07T01:31:39.140Z,38.70
2019-06-07T01:34:08.040Z,38.70
2019-06-07T01:36:36.804Z,38.60
2019-06-07T01:39:06.923Z,38.70
2019-06-07T01:41:35.940Z,39.30
2019-06-07T01:44:04.623Z,38.70
2019-06-07T01:46:33.651Z,38.70
2019-06-07T01:49:02.916Z,38.70
2019-06-07T01:51:31.706Z,38.80
2019-06-07T01:54:48.698Z,38.80
2019-06-07T01:56:30.818Z,38.90
2019-06-07T01:58:59.611Z,38.90
2019-06-07T02:01:34.622Z,38.90
2019-06-07T02:03:58.698Z,39.00
2019-06-07T02:06:31.411Z,39.00
2019-06-07T02:08:58.036Z,39.10
2019-06-07T02:11:29.435Z,39.10
2019-06-07T02:13:57.175Z,39.10
2019-06-07T02:16:30.323Z,39.20
2019-06-07T02:19:01.991Z,39.30
2019-06-07T02:21:30.429Z,39.30
2019-06-07T02:23:57.416Z,39.30
2019-06-07T02:26:29.549Z,39.30
2019-06-07T02:28:56.411Z,39.40
2019-06-07T02:31:27.875Z,39.30
2019-06-07T02:33:55.508Z,39.40
2019-06-07T02:36:27.383Z,39.50
2019-06-07T02:38:54.568Z,39.50
2019-06-07T02:41:28.476Z,39.60
2019-06-07T02:43:53.751Z,39.60
2019-06-07T02:46:30.386Z,39.70
2019-06-07T02:48:54.624Z,39.70
2019-06-07T02:51:26.540Z,39.80
2019-06-07T02:53:53.700Z,39.90
2019-06-07T02:56:53.979Z,40.10
2019-06-07T02:58:52.811Z,40.10
2019-06-07T03:01:21.505Z,40.20
2019-06-07T03:03:50.420Z,40.40
2019-06-07T03:06:19.179Z,40.50
2019-06-07T03:08:47.907Z,40.60
2019-06-07T03:11:16.656Z,40.70
2019-06-07T03:13:47.299Z,40.80
2019-06-07T03:16:20.373Z,40.70
2019-06-07T03:18:53.270Z,40.60
2019-06-07T03:21:31.324Z,40.50
2019-06-07T03:24:00.048Z,40.40
2019-06-07T03:26:31.309Z,40.50
2019-06-07T03:28:59.257Z,40.50
2019-06-07T03:31:31.685Z,40.50
2019-06-07T03:33:58.705Z,40.50
2019-06-07T03:36:27.519Z,40.60
2019-06-07T03:38:56.438Z,40.60
2019-06-07T03:41:25.144Z,40.80
2019-06-07T03:43:53.927Z,40.70
2019-06-07T03:46:22.848Z,40.70
2019-06-07T03:48:51.743Z,40.80
2019-06-07T03:51:25.384Z,40.90
2019-06-07T03:53:50.825Z,40.90
2019-06-07T03:56:19.551Z,41.00
2019-06-07T03:58:50.196Z,41.00
2019-06-07T04:01:18.831Z,41.20
2019-06-07T04:03:51.803Z,41.20
2019-06-07T04:06:18.070Z,41.30
2019-06-07T04:08:46.824Z,41.40
2019-06-07T04:11:15.620Z,41.40
2019-06-07T04:13:44.513Z,41.50
2019-06-07T04:16:13.848Z,41.60
2019-06-07T04:18:42.699Z,41.70
2019-06-07T04:21:11.540Z,41.80
2019-06-07T04:23:45.252Z,41.90
2019-06-07T04:26:10.709Z,42.00
2019-06-07T04:29:31.113Z,42.00
2019-06-07T04:31:09.675Z,42.10
2019-06-07T04:33:41.542Z,42.20
2019-06-07T04:36:08.750Z,42.20
2019-06-07T04:38:40.571Z,42.20
2019-06-07T04:41:07.834Z,42.20
2019-06-07T04:43:38.732Z,42.20
2019-06-07T04:46:06.824Z,42.40
2019-06-07T04:48:40.217Z,42.40
2019-06-07T04:51:06.032Z,42.50
2019-06-07T04:53:38.128Z,42.50
2019-06-07T04:56:05.307Z,42.50
2019-06-07T04:58:35.704Z,42.50
2019-06-07T05:01:04.661Z,42.50
2019-06-07T05:03:36.085Z,42.40
2019-06-07T05:06:04.073Z,42.30
2019-06-07T05:08:35.160Z,42.30
2019-06-07T05:11:03.330Z,42.40
2019-06-07T05:13:36.728Z,42.40
2019-06-07T05:16:02.564Z,42.50
2019-06-07T05:18:33.656Z,42.70
2019-06-07T05:21:01.778Z,42.60
2019-06-07T05:24:03.515Z,42.60
2019-06-07T05:26:00.992Z,42.80
2019-06-07T05:28:30.028Z,42.70
2019-06-07T05:31:04.613Z,42.70
2019-06-07T05:33:30.750Z,42.70
2019-06-07T05:35:59.730Z,42.70
2019-06-07T05:38:28.627Z,42.70
2019-06-07T05:40:57.394Z,42.60
2019-06-07T05:43:27.747Z,42.40
2019-06-07T05:45:56.483Z,42.60
2019-06-07T05:48:25.307Z,43.00
2019-06-07T05:50:57.191Z,43.10
2019-06-07T05:53:26.007Z,42.90
2019-06-07T05:55:54.722Z,42.90
2019-06-07T05:58:23.570Z,42.80
2019-06-07T06:00:52.303Z,42.80
2019-06-07T06:03:21.311Z,43.00
2019-06-07T06:05:54.917Z,43.00
2019-06-07T06:08:20.495Z,42.90
2019-06-07T06:10:49.421Z,43.00
2019-06-07T06:13:18.535Z,43.00
2019-06-07T06:16:00.370Z,43.00
2019-06-07T06:18:17.732Z,43.20
2019-06-07T06:21:11.809Z,43.10
2019-06-07T06:23:16.930Z,43.30
2019-06-07T06:25:53.567Z,43.30
2019-06-07T06:28:16.394Z,43.40
2019-06-07T06:30:47.948Z,43.40
2019-06-07T06:33:33.079Z,43.40
2019-06-07T06:35:50.856Z,43.40
2019-06-07T06:38:19.529Z,43.30
2019-06-07T06:40:52.698Z,43.10
2019-06-07T06:43:18.643Z,43.00
2019-06-07T06:45:50.478Z,42.80
2019-06-07T06:48:17.926Z,42.80
2019-06-07T06:50:50.121Z,42.80
2019-06-07T06:53:17.219Z,42.90
2019-06-07T06:55:49.280Z,43.00
2019-06-07T06:58:16.324Z,43.20
2019-06-07T07:01:01.184Z,42.90
2019-06-07T07:05:50.861Z,42.80
2019-06-07T07:08:18.441Z,42.20
2019-06-07T07:10:51.114Z,42.20
2019-06-07T07:13:19.330Z,43.00
2019-06-07T07:15:51.062Z,42.40
2019-06-07T07:18:18.612Z,42.40
2019-06-07T07:20:48.325Z,42.20
2019-06-07T07:23:17.726Z,41.80
2019-06-07T07:25:52.836Z,42.10
2019-06-07T07:28:16.868Z,42.20
2019-06-07T07:30:54.451Z,42.00
2019-06-07T07:33:20.447Z,42.40
2019-06-07T07:36:14.036Z,42.00
2019-06-07T07:38:19.669Z,42.00
2019-06-07T07:41:01.946Z,41.90
2019-06-07T07:43:18.807Z,41.90
2019-06-07T07:45:55.005Z,42.00
2019-06-07T07:48:18.510Z,42.10
2019-06-07T07:50:49.900Z,41.90
2019-06-07T07:53:18.175Z,41.50
2019-06-07T07:55:51.527Z,41.40
2019-06-07T07:58:17.377Z,41.20
2019-06-07T08:00:52.834Z,40.60
2019-06-07T08:03:16.417Z,40.20
2019-06-07T08:05:46.848Z,40.20
2019-06-07T08:08:15.641Z,40.20
2019-06-07T08:10:44.352Z,40.20
2019-06-07T08:13:25.639Z,40.20
2019-06-07T08:15:43.568Z,40.20
2019-06-07T08:18:12.359Z,39.70
2019-06-07T08:21:01.380Z,39.50
2019-06-07T08:23:11.526Z,39.20
2019-06-07T08:25:40.285Z,39.10
2019-06-07T08:28:09.049Z,39.10
2019-06-07T08:31:02.403Z,39.70
2019-06-07T08:33:25.455Z,39.20
2019-06-07T08:38:25.105Z,39.30
2019-06-07T08:40:39.279Z,39.50
2019-06-07T08:43:19.458Z,39.00
2019-06-07T08:45:38.341Z,39.10
2019-06-07T08:48:26.750Z,39.30
2019-06-07T08:50:37.463Z,39.00
2019-06-07T08:53:12.104Z,38.90
2019-06-07T08:55:36.565Z,38.50
2019-06-07T08:58:08.574Z,38.00
2019-06-07T09:00:46.535Z,38.30
2019-06-07T09:03:07.503Z,37.70
2019-06-07T09:05:36.657Z,37.50
2019-06-07T09:08:28.664Z,37.70
2019-06-07T09:10:35.979Z,37.60
2019-06-07T09:13:10.933Z,37.60
2019-06-07T09:15:35.059Z,37.60
2019-06-07T09:20:45.535Z,37.70
2019-06-07T09:23:17.020Z,37.90
2019-06-07T09:25:56.643Z,38.10
2019-06-07T09:28:19.763Z,38.20
2019-06-07T09:30:45.843Z,38.30
2019-06-07T09:33:14.673Z,38.40
2019-06-07T09:35:43.440Z,38.50
2019-06-07T09:38:24.266Z,38.70
2019-06-07T09:40:42.635Z,38.90
2019-06-07T09:45:43.463Z,38.80
2019-06-07T09:48:16.215Z,38.70
2019-06-07T09:50:42.566Z,38.40
2019-06-07T09:53:21.711Z,38.10
2019-06-07T09:55:42.016Z,37.90
2019-06-07T09:58:48.345Z,37.80
2019-06-07T10:00:42.562Z,37.70
2019-06-07T10:03:20.178Z,38.00
2019-06-07T10:05:42.287Z,37.90
2019-06-07T10:08:41.396Z,37.70
2019-06-07T10:10:43.036Z,37.70
2019-06-07T10:13:11.900Z,37.80
2019-06-07T10:15:40.891Z,37.90
2019-06-07T10:18:09.789Z,37.80
2019-06-07T10:20:38.542Z,38.10
2019-06-07T10:23:08.034Z,38.30
2019-06-07T10:25:37.094Z,38.50
2019-06-07T10:28:06.172Z,38.50
2019-06-07T10:30:35.286Z,38.30
2019-06-07T10:33:04.883Z,38.20
2019-06-07T10:35:34.099Z,38.20
2019-06-07T10:38:02.958Z,38.30
2019-06-07T10:40:31.595Z,38.30
2019-06-07T10:43:01.162Z,38.40
2019-06-07T10:45:30.140Z,39.10
2019-06-07T10:47:58.930Z,38.70
2019-06-07T10:50:27.609Z,38.90
2019-06-07T10:52:56.410Z,39.00
2019-06-07T10:55:25.131Z,39.30
2019-06-07T10:57:53.901Z,39.50
2019-06-07T11:00:22.672Z,40.40
2019-06-07T11:02:54.951Z,40.00
2019-06-07T11:05:21.940Z,40.30
2019-06-07T11:07:50.844Z,40.30
2019-06-07T11:10:20.383Z,40.40
2019-06-07T11:12:49.523Z,40.30
2019-06-07T11:15:18.231Z,39.80
2019-06-07T11:17:46.951Z,39.50
2019-06-07T11:20:15.664Z,39.50
2019-06-07T11:22:44.440Z,39.50
2019-06-07T11:25:14.577Z,39.50
2019-06-07T11:27:43.628Z,39.30
2019-06-07T11:30:14.445Z,39.30
2019-06-07T11:32:43.331Z,38.80
2019-06-07T11:35:13.696Z,38.80
2019-06-07T11:37:42.389Z,38.70
2019-06-07T11:40:28.050Z,38.90
2019-06-07T11:42:41.106Z,39.00
2019-06-07T11:45:10.470Z,39.50
2019-06-07T11:47:40.015Z,38.60
2019-06-07T11:50:09.446Z,38.50
2019-06-07T11:52:39.278Z,38.40
2019-06-07T11:55:09.031Z,38.40
2019-06-07T11:57:38.084Z,38.30
2019-06-07T12:00:11.468Z,38.10
2019-06-07T12:02:40.583Z,38.10
2019-06-07T12:05:10.360Z,38.00
2019-06-07T12:07:39.739Z,38.00
2019-06-07T12:10:08.739Z,38.10
2019-06-07T12:12:37.492Z,38.30
2019-06-07T12:15:09.195Z,38.40
2019-06-07T12:17:37.144Z,38.10
2019-06-07T12:20:08.591Z,38.50
2019-06-07T12:22:36.444Z,37.90
2019-06-07T12:25:06.864Z,38.00
2019-06-07T12:27:35.766Z,37.80
2019-06-07T12:30:09.989Z,37.60
2019-06-07T12:32:37.986Z,37.70
2019-06-07T12:35:07.696Z,37.60
2019-06-07T12:37:43.675Z,38.20
2019-06-07T12:40:08.467Z,37.40
2019-06-07T12:42:37.543Z,37.60
2019-06-07T12:45:07.563Z,37.70
2019-06-07T12:47:36.195Z,38.00
2019-06-07T12:50:08.779Z,38.10
2019-06-07T12:52:37.608Z,37.90
2019-06-07T12:55:09.404Z,37.80
2019-06-07T12:57:37.393Z,37.70
2019-06-07T13:00:13.925Z,37.70
2019-06-07T13:02:42.940Z,37.70
2019-06-07T13:05:11.853Z,37.80
2019-06-07T13:07:40.713Z,37.70
2019-06-07T13:10:10.230Z,37.70
2019-06-07T13:12:39.241Z,37.90
2019-06-07T13:15:08.266Z,37.90
2019-06-07T13:17:37.617Z,37.90
2019-06-07T13:20:06.826Z,37.90
2019-06-07T13:22:35.622Z,38.00
2019-06-07T13:25:04.699Z,38.10
2019-06-07T13:27:33.923Z,38.00
2019-06-07T13:30:09.889Z,38.00
2019-06-07T13:32:33.327Z,38.00
2019-06-07T13:35:02.024Z,38.10
2019-06-07T13:37:30.805Z,38.40
2019-06-07T13:39:59.669Z,38.20
2019-06-07T13:42:28.692Z,38.30
2019-06-07T13:44:57.579Z,37.60
2019-06-07T13:47:27.525Z,37.90
2019-06-07T13:49:56.463Z,37.80
2019-06-07T13:52:25.214Z,37.80
2019-06-07T13:54:53.961Z,37.80
2019-06-07T13:57:24.238Z,37.90
2019-06-07T13:59:53.163Z,38.00
2019-06-07T14:02:23.609Z,38.10
2019-06-07T14:04:52.296Z,38.30
2019-06-07T14:07:21.276Z,38.50
2019-06-07T14:09:50.144Z,38.50
2019-06-07T14:12:19.415Z,38.70
2019-06-07T14:14:48.470Z,38.80
2019-06-07T14:17:17.429Z,38.90
2019-06-07T14:19:46.143Z,38.90
2019-06-07T14:22:14.899Z,38.90
2019-06-07T14:24:43.815Z,38.80
2019-06-07T14:27:12.607Z,38.70
2019-06-07T14:29:41.305Z,38.70
2019-06-07T14:32:10.062Z,38.60
2019-06-07T14:34:38.866Z,38.40
2019-06-07T14:37:07.628Z,38.40
2019-06-07T14:39:36.309Z,38.10
2019-06-07T14:42:09.854Z,38.10
2019-06-07T14:44:35.456Z,38.10
2019-06-07T14:47:04.209Z,38.00
2019-06-07T14:49:34.597Z,38.00
2019-06-07T14:52:03.444Z,38.00
2019-06-07T14:54:36.147Z,38.10
2019-06-07T14:57:03.531Z,38.10
2019-06-07T14:59:34.904Z,38.10
2019-06-07T15:02:03.818Z,38.00
2019-06-07T15:04:32.876Z,38.70
2019-06-07T15:07:02.019Z,38.10
2019-06-07T15:09:31.064Z,38.20
2019-06-07T15:11:59.977Z,38.30
2019-06-07T15:14:29.289Z,38.90
2019-06-07T15:16:58.410Z,38.30
2019-06-07T15:19:28.710Z,38.40
2019-06-07T15:21:57.797Z,38.20
2019-06-07T15:24:28.006Z,38.30
2019-06-07T15:26:56.903Z,38.30
2019-06-07T15:29:25.694Z,38.30
2019-06-07T15:31:54.406Z,38.30
2019-06-07T15:34:23.160Z,38.30
2019-06-07T15:36:51.947Z,38.30
2019-06-07T15:39:20.773Z,38.40
2019-06-07T15:41:49.442Z,38.30
2019-06-07T15:44:18.079Z,38.40
2019-06-07T15:46:46.797Z,38.30
2019-06-07T15:49:15.716Z,38.40
2019-06-07T15:51:44.483Z,38.30
2019-06-07T15:54:13.207Z,38.30
2019-06-07T15:56:42.077Z,38.20
2019-06-07T15:59:10.848Z,38.20
2019-06-07T16:01:39.778Z,38.20
2019-06-07T16:04:08.441Z,38.20
2019-06-07T16:06:38.275Z,38.10
2019-06-07T16:09:07.863Z,38.10
2019-06-07T16:11:37.201Z,38.10
2019-06-07T16:14:06.423Z,38.00
2019-06-07T16:16:35.319Z,38.00
2019-06-07T16:19:04.144Z,38.00
2019-06-07T16:21:33.299Z,38.00
2019-06-07T16:24:02.431Z,37.90
2019-06-07T16:26:31.449Z,37.90
2019-06-07T16:29:00.311Z,38.00
2019-06-07T16:31:29.105Z,38.10
2019-06-07T16:33:57.839Z,38.80
2019-06-07T16:36:26.964Z,38.30
2019-06-07T16:38:56.031Z,38.40
2019-06-07T16:41:25.047Z,40.10
2019-06-07T16:43:54.066Z,38.90
2019-06-07T16:46:23.326Z,38.80
2019-06-07T16:48:52.071Z,38.90
2019-06-07T16:51:21.286Z,39.10
2019-06-07T16:53:49.943Z,39.20
2019-06-07T16:56:18.701Z,39.40
2019-06-07T16:58:48.686Z,39.50
2019-06-07T17:01:17.593Z,39.60
2019-06-07T17:03:47.536Z,40.00
2019-06-07T17:06:16.463Z,39.60
2019-06-07T17:08:46.303Z,39.80
2019-06-07T17:11:15.042Z,39.90
2019-06-07T17:13:44.441Z,39.90
2019-06-07T17:16:13.409Z,40.00
2019-06-07T17:18:43.059Z,40.20
2019-06-07T17:21:11.899Z,40.40
2019-06-07T17:23:41.212Z,40.20
2019-06-07T17:26:10.099Z,40.20
2019-06-07T17:28:39.627Z,40.20
2019-06-07T17:31:08.614Z,40.20
2019-06-07T17:33:37.377Z,40.30
2019-06-07T17:36:06.709Z,40.10
2019-06-07T17:38:35.494Z,40.10
2019-06-07T17:41:04.173Z,40.10
2019-06-07T17:43:46.094Z,40.10
2019-06-07T17:46:03.291Z,40.10
2019-06-07T17:48:36.558Z,40.10
2019-06-07T17:51:05.166Z,40.10
2019-06-07T17:53:33.926Z,40.20
2019-06-07T17:56:02.717Z,40.20
2019-06-07T17:58:31.604Z,40.20
2019-06-07T18:01:00.391Z,40.20
2019-06-07T18:03:29.179Z,40.10
2019-06-07T18:05:57.967Z,40.10
2019-06-07T18:08:26.758Z,40.10
2019-06-07T18:10:55.502Z,40.10
2019-06-07T18:13:24.261Z,40.20
2019-06-07T18:15:58.778Z,40.20
2019-06-07T18:18:23.466Z,40.10
2019-06-07T18:20:53.404Z,40.10
2019-06-07T18:23:22.360Z,40.20
2019-06-07T18:25:52.536Z,40.20
2019-06-07T18:28:21.479Z,40.10
2019-06-07T18:30:50.794Z,40.20
2019-06-07T18:33:19.756Z,40.10
2019-06-07T18:35:49.006Z,40.10
2019-06-07T18:38:17.891Z,40.10
2019-06-07T18:40:47.178Z,40.20
2019-06-07T18:43:16.061Z,40.20
2019-06-07T18:45:44.823Z,40.20
2019-06-07T18:48:15.144Z,40.20
2019-06-07T18:50:43.960Z,40.20
2019-06-07T18:53:14.298Z,40.20
2019-06-07T18:55:43.147Z,40.20
2019-06-07T18:58:11.947Z,40.30
2019-06-07T19:00:40.736Z,40.40
2019-06-07T19:03:09.472Z,40.60
2019-06-07T19:05:38.239Z,40.50
2019-06-07T19:08:07.911Z,40.40
2019-06-07T19:10:36.830Z,40.40
2019-06-07T19:13:05.612Z,40.60
2019-06-07T19:15:34.311Z,40.80
2019-06-07T19:18:03.385Z,41.10
2019-06-07T19:20:32.370Z,41.30
2019-06-07T19:23:01.281Z,41.30
2019-06-07T19:25:30.312Z,41.40
2019-06-07T19:27:59.327Z,41.40
2019-06-07T19:30:28.124Z,41.40
2019-06-07T19:32:57.330Z,41.40
2019-06-07T19:35:26.167Z,41.50
2019-06-07T19:37:55.837Z,41.40
2019-06-07T19:40:24.711Z,41.40
2019-06-07T19:42:54.140Z,41.80
2019-06-07T19:45:31.708Z,41.80
2019-06-07T19:47:54.431Z,41.80
2019-06-07T19:50:23.382Z,41.80
2019-06-07T19:52:53.097Z,41.60
2019-06-07T19:55:22.214Z,41.70
2019-06-07T19:57:51.184Z,41.80
2019-06-07T20:00:19.829Z,41.80
2019-06-07T20:02:48.527Z,41.60
2019-06-07T20:05:17.296Z,41.60
2019-06-07T20:07:45.939Z,41.70
2019-06-07T20:10:14.675Z,41.70
2019-06-07T20:12:43.754Z,41.80
2019-06-07T20:15:28.334Z,41.80
2019-06-07T20:17:42.811Z,41.80
2019-06-07T20:20:11.592Z,41.80
2019-06-07T20:22:40.380Z,41.80
2019-06-07T20:25:09.221Z,41.90
2019-06-07T20:27:38.097Z,41.90
2019-06-07T20:30:08.562Z,42.00
2019-06-07T20:32:37.451Z,42.10
2019-06-07T20:35:06.502Z,41.90
2019-06-07T20:37:36.358Z,42.00
2019-06-07T20:40:22.340Z,42.10
2019-06-07T20:42:39.902Z,42.20
2019-06-07T20:45:08.586Z,42.20
2019-06-07T20:47:37.249Z,42.20
2019-06-07T20:50:08.926Z,42.40
2019-06-07T20:52:37.710Z,42.40
2019-06-07T20:55:07.141Z,42.40
2019-06-07T20:57:35.903Z,42.60
2019-06-07T21:00:16.051Z,42.60
2019-06-07T21:02:39.705Z,42.70
2019-06-07T21:05:09.786Z,42.70
2019-06-07T21:07:38.895Z,42.70
2019-06-07T21:10:08.236Z,42.80
2019-06-07T21:12:37.335Z,42.90
2019-06-07T21:15:10.734Z,42.90
2019-06-07T21:17:37.409Z,42.80
2019-06-07T21:20:08.193Z,43.00
2019-06-07T21:22:37.584Z,43.00
2019-06-07T21:25:11.308Z,43.00
2019-06-07T21:27:40.082Z,43.10
2019-06-07T21:30:09.633Z,43.10
2019-06-07T21:32:38.468Z,43.10
2019-06-07T21:35:08.089Z,43.30
2019-06-07T21:37:36.977Z,43.30
2019-06-07T21:40:06.121Z,43.40
2019-06-07T21:42:35.118Z,43.50
2019-06-07T21:45:05.905Z,43.50
2019-06-07T21:47:34.787Z,43.60
2019-06-07T21:50:04.922Z,43.50
2019-06-07T21:52:33.686Z,43.60
2019-06-07T21:55:02.875Z,43.80
2019-06-07T21:57:31.878Z,43.70
2019-06-07T22:00:00.669Z,43.80
2019-06-07T22:02:29.480Z,43.90
2019-06-07T22:04:58.240Z,43.90
2019-06-07T22:07:26.973Z,44.00
2019-06-07T22:09:55.815Z,44.10
2019-06-07T22:12:24.606Z,44.10
2019-06-07T22:14:53.391Z,44.20
2019-06-07T22:17:22.180Z,44.20
2019-06-07T22:19:50.933Z,44.50
2019-06-07T22:22:19.759Z,44.30
2019-06-07T22:24:48.398Z,44.40
2019-06-07T22:27:17.684Z,44.50
2019-06-07T22:29:46.628Z,44.40
2019-06-07T22:32:15.376Z,44.60
2019-06-07T22:34:44.103Z,44.70
2019-06-07T22:37:15.961Z,44.70
2019-06-07T22:39:43.314Z,44.70
2019-06-07T22:42:13.501Z,44.60
2019-06-07T22:44:42.268Z,44.70
2019-06-07T22:47:12.036Z,44.70
2019-06-07T22:49:40.933Z,44.30
2019-06-07T22:52:12.549Z,44.90
2019-06-07T22:54:39.958Z,44.80
2019-06-07T22:57:14.114Z,44.80
2019-06-07T22:59:42.935Z,44.80
2019-06-07T23:02:12.664Z,44.90
2019-06-07T23:04:41.552Z,45.00
2019-06-07T23:07:10.792Z,45.10
2019-06-07T23:09:39.633Z,45.10
2019-06-07T23:12:09.125Z,45.10
2019-06-07T23:14:37.950Z,45.10
2019-06-07T23:17:06.708Z,45.20
2019-06-07T23:19:35.429Z,45.20
2019-06-07T23:22:04.124Z,45.20
2019-06-07T23:24:32.867Z,45.30
2019-06-07T23:27:01.653Z,45.30
2019-06-07T23:29:30.708Z,45.30
2019-06-07T23:31:59.436Z,45.30
2019-06-07T23:34:28.223Z,45.60
2019-06-07T23:36:56.873Z,45.30
2019-06-07T23:39:25.603Z,45.30
2019-06-07T23:41:54.384Z,45.50
2019-06-07T23:44:23.101Z,45.40
2019-06-07T23:46:51.855Z,45.40
2019-06-07T23:49:22.408Z,45.40
2019-06-07T23:51:50.880Z,45.40
2019-06-07T23:54:19.944Z,45.40
2019-06-07T23:56:48.986Z,45.50
2019-06-07T23:59:18.150Z,46.10
